Sunday, January 20, 2019, 1:55 AM EST
Back to Local

KSLK, Adirondack Regional Airport

Location: Saranac Lake, NY, United States Lat: 44.4
Local Time: 1:55 AM EST ( 6:55 GMT) Lon: -74.2
Time Zone: US/Eastern Elev: 1663 ft

Show me the last for .
Show Coded

Time T Td Feel RH Dir Speed Gust Alt SLP Vis Weather Sky Remarks
2019-01-20 01:38 1 -3 -16 82 70° 12 - 29.76 - 1 -SN BR OVC018 Pressure falling rapidly
1-hr Precip Total: 0.01"
2019-01-20 00:51 0 -4 -16 82 60° 10 - 29.82 29.95 1 -SN BR VV012 1-hr Precip Total: 0.01"
6-hr Precip Total (1am): 0.02"
6-hr Min Temp (1am): -2.9°F
6-hr Max Temp (1am): -0.0°F
2019-01-20 00:22 -1 -5 -17 82 60° 10 - 29.86 - 1 -SN BR VV013 Pressure falling rapidly
1-hr Precip Total: Trace
2019-01-19 23:51 -1 -5 -16 82 60° 9 - 29.89 30.02 1 -SN BR OVC020 1-hr Precip Total: Trace
24-hr Min Temp (12am): -2.9°F
24-hr Max Temp (12am): 14.0°F
2019-01-19 23:23 -1 -6 -15 78 60° 8 - 29.90 - 1 -SN OVC021 1-hr Precip Total: Trace
2019-01-19 22:51 -2 -6 -19 82 60° 10 - 29.92 30.05 2 -SN BR OVC024 1-hr Precip Total: 0.01"
2019-01-19 21:51 -2 -7 -17 78 70° 8 - 29.97 30.10 1 -SN OVC022 1-hr Precip Total: Trace
6-hr Precip Total (10pm): 0.00"
2019-01-19 21:44 -2 -7 -18 78 60° 9 - 29.97 - 1 -SN OVC026 1-hr Precip Total: Trace
2019-01-19 21:32 -3 -7 -18 81 60° 8 - 29.98 - 2 -SN BR OVC034 1-hr Precip Total: Trace
2019-01-19 20:51 -3 -7 -19 81 60° 9 - 29.99 30.12 10 OVC060 1-hr Precip Total: Trace
2019-01-19 19:51 -3 -7 -16 81 70° 7 - 30.04 30.17 3 -SN BR OVC037 1-hr Precip Total: Trace
2019-01-19 19:15 -3 -7 -16 81 70° 7 - 30.06 - 3 -SN BR OVC037 1-hr Precip Total: Trace
2019-01-19 18:58 -3 -7 -16 81 70° 7 - 30.06 - 2 -SN BR OVC036 1-hr Precip Total: Trace
2019-01-19 18:51 -3 -7 -16 81 80° 7 - 30.06 30.20 3 -SN BR OVC034 1-hr Precip Total: 0.01"
6-hr Precip Total (7pm): 0.04"
6-hr Min Temp (7pm): -2.9°F
6-hr Max Temp (7pm): -0.0°F
2019-01-19 18:44 -3 -7 -18 81 70° 8 - 30.07 - 3 -SN BR OVC030 1-hr Precip Total: Trace
2019-01-19 18:39 -3 -7 -20 81 60° 10 - 30.07 - 2 -SN BR OVC028 1-hr Precip Total: Trace
2019-01-19 17:51 -2 -6 -17 82 50° 8 - 30.07 30.21 1 -SN BR OVC017 1-hr Precip Total: Trace
2019-01-19 17:18 -2 -6 -18 82 50° 9 - 30.08 - 1 -SN BR VV013 1-hr Precip Total: Trace
2019-01-19 16:51 -2 -6 -19 82 50° 10 - 30.10 30.23 1 -SN BR VV016 1-hr Precip Total: 0.02"
2019-01-19 16:21 -1 -5 -14 82 70° 7 - 30.12 - 0 -SN FZFG VV014 1-hr Precip Total: 0.01"
2019-01-19 15:51 -1 -5 -17 82 50° 10 - 30.12 30.25 0 -SN BR VV017 1-hr Precip Total: Trace
6-hr Precip Total (4pm): 0.01"
2019-01-19 15:42 -1 -6 -18 78 60° 12 - 30.12 - 0 -SN VV015 1-hr Precip Total: Trace
2019-01-19 14:51 -1 -5 -17 82 50° 10 - 30.13 30.25 0 SN FZFG VV012 1-hr Precip Total: 0.01"
2019-01-19 14:40 -1 -5 -14 82 60° 7 - 30.12 - 0 SN FZFG VV013 1-hr Precip Total: 0.01"
2019-01-19 14:23 0 -5 -14 78 60° 8 - 30.12 - 0 -SN VV016 1-hr Precip Total: 0.01"
2019-01-19 13:51 0 -6 -16 75 50° 10 - 30.12 30.24 1 -SN OVC024 1-hr Precip Total: Trace
2019-01-19 13:40 0 -6 -16 75 80° 10 - 30.11 - 1 -SN BKN026 OVC035 1-hr Precip Total: Trace
2019-01-19 13:29 0 -6 -15 75 50° 9 - 30.12 - 1 -SN BKN031 OVC039 1-hr Precip Total: Trace
2019-01-19 12:51 0 -6 -18 75 50° 13 - 30.12 30.24 10 BKN050 OVC060 Pressure falling rapidly
6-hr Min Temp (1pm): -0.0°F
6-hr Max Temp (1pm): 1.0°F
2019-01-19 11:51 0 -5 -15 78 70° 9 - 30.17 30.28 10 OVC075 None
2019-01-19 10:51 1 -5 -13 74 80° 8 - 30.21 30.32 10 OVC080 None
2019-01-19 09:51 0 -5 -15 78 60° 9 - 30.21 30.32 10 FEW090 None
2019-01-19 09:11 0 -5 -14 78 60° 8 - 30.21 - 10 SCT028 OVC095 None
2019-01-19 08:51 1 -4 -13 78 60° 8 - 30.21 30.31 10 OVC028 None
2019-01-19 07:51 0 -4 -8 82 Variable 3 - 30.19 30.29 10 SCT012 BKN028 None
2019-01-19 07:07 0 -4 - 82 - Calm - 30.16 - 10 OVC029 None
2019-01-19 06:51 0 -4 -10 82 20° 5 - 30.16 30.26 10 OVC030 6-hr Precip Total (7am): 0.00"
24-hr Precip Total (7am): 0.03"
6-hr Min Temp (7am): -0.0°F
6-hr Max Temp (7am): 9.0°F
2019-01-19 06:01 2 -2 -6 82 Variable 3 - 30.16 - 10 OVC030 None
2019-01-19 05:51 2 -2 -6 82 330° 3 - 30.16 30.26 10 OVC029 None
2019-01-19 05:41 2 -2 - 82 - Calm - 30.15 - 10 OVC029 None
2019-01-19 04:51 3 0 -4 86 Variable 3 - 30.15 30.25 10 OVC032 None
2019-01-19 03:51 4 0 - 83 - Calm - 30.15 30.24 10 OVC034 6-hr Precip Total (4am): 0.00"
2019-01-19 02:51 5 0 -2 79 10° 3 - 30.15 30.24 10 OVC034 None

Support USWX by starting your Amazon purchase here.